createdAt,value
2019-04-05T00:00:20.008Z,23.37
2019-04-05T00:02:49.596Z,27.10
2019-04-05T00:05:19.064Z,22.63
2019-04-05T00:07:48.503Z,22.10
2019-04-05T00:10:18.192Z,22.17
2019-04-05T00:12:47.662Z,21.17
2019-04-05T00:15:17.260Z,21.33
2019-04-05T00:17:46.708Z,25.40
2019-04-05T00:20:16.989Z,22.90
2019-04-05T00:22:46.424Z,29.47
2019-04-05T00:25:15.882Z,28.37
2019-04-05T00:27:45.351Z,26.33
2019-04-05T00:30:15.507Z,24.70
2019-04-05T00:32:44.956Z,27.20
2019-04-05T00:35:14.405Z,28.63
2019-04-05T00:37:43.933Z,28.33
2019-04-05T00:40:13.765Z,32.97
2019-04-05T00:42:43.411Z,31.63
2019-04-05T00:45:13.346Z,26.80
2019-04-05T00:47:42.801Z,31.90
2019-04-05T00:50:12.871Z,36.43
2019-04-05T00:52:42.334Z,26.67
2019-04-05T00:55:12.283Z,29.00
2019-04-05T00:57:41.821Z,32.60
2019-04-05T01:00:11.980Z,38.53
2019-04-05T01:02:41.432Z,30.50
2019-04-05T01:05:11.016Z,41.27
2019-04-05T01:07:40.803Z,28.70
2019-04-05T01:10:10.939Z,39.97
2019-04-05T01:12:42.111Z,29.07
2019-04-05T01:15:12.864Z,31.70
2019-04-05T01:17:42.736Z,26.60
2019-04-05T01:20:13.317Z,31.47
2019-04-05T01:22:44.714Z,32.10
2019-04-05T01:25:14.393Z,31.10
2019-04-05T01:27:44.233Z,29.00
2019-04-05T01:30:15.289Z,34.70
2019-04-05T01:32:44.907Z,29.37
2019-04-05T01:35:14.535Z,32.20
2019-04-05T01:37:44.672Z,30.57
2019-04-05T01:40:15.364Z,32.10
2019-04-05T01:42:45.177Z,38.13
2019-04-05T01:45:15.457Z,31.53
2019-04-05T01:47:44.957Z,29.30
2019-04-05T01:50:14.768Z,30.33
2019-04-05T01:52:45.050Z,40.93
2019-04-05T01:55:14.664Z,26.63
2019-04-05T01:57:44.135Z,26.10
2019-04-05T02:00:14.494Z,29.27
2019-04-05T02:02:44.152Z,30.03
2019-04-05T02:05:14.336Z,25.07
2019-04-05T02:07:44.435Z,26.90
2019-04-05T02:10:14.797Z,33.20
2019-04-05T02:12:44.542Z,28.63
2019-04-05T02:15:27.359Z,28.83
2019-04-05T02:17:57.536Z,29.00
2019-04-05T02:20:27.390Z,32.20
2019-04-05T02:22:57.153Z,37.80
2019-04-05T02:25:26.678Z,28.07
2019-04-05T02:27:56.341Z,34.10
2019-04-05T02:30:26.691Z,37.63
2019-04-05T02:32:56.405Z,33.23
2019-04-05T02:35:26.455Z,30.97
2019-04-05T02:37:56.137Z,27.43
2019-04-05T02:40:28.426Z,32.97
2019-04-05T02:43:02.473Z,28.43
2019-04-05T02:45:36.392Z,30.93
2019-04-05T02:48:10.207Z,32.43
2019-04-05T02:50:44.265Z,30.30
2019-04-05T02:53:15.652Z,29.93
2019-04-05T02:55:46.688Z,35.37
2019-04-05T02:58:17.037Z,37.80
2019-04-05T03:00:47.314Z,26.53
2019-04-05T03:03:17.735Z,27.47
2019-04-05T03:05:48.435Z,28.47
2019-04-05T03:08:19.142Z,26.13
2019-04-05T03:11:04.567Z,32.57
2019-04-05T03:13:38.597Z,26.80
2019-04-05T03:16:20.855Z,26.50
2019-04-05T03:19:07.156Z,25.17
2019-04-05T03:21:41.233Z,29.97
2019-04-05T03:24:15.318Z,26.37
2019-04-05T03:26:49.391Z,25.43
2019-04-05T03:29:19.203Z,26.93
2019-04-05T03:31:49.020Z,29.10
2019-04-05T03:34:18.908Z,21.37
2019-04-05T03:36:51.662Z,25.43
2019-04-05T03:39:19.904Z,26.77
2019-04-05T03:41:49.368Z,25.20
2019-04-05T03:44:22.757Z,29.63
2019-04-05T03:46:56.762Z,33.43
2019-04-05T03:49:23.030Z,27.23
2019-04-05T03:51:52.730Z,29.50
2019-04-05T03:54:23.080Z,25.53
2019-04-05T03:56:52.740Z,24.10
2019-04-05T03:59:22.423Z,25.33
2019-04-05T04:01:52.401Z,28.73
2019-04-05T04:04:22.431Z,27.20
2019-04-05T04:06:51.858Z,30.23
2019-04-05T04:09:21.742Z,23.90
2019-04-05T04:11:51.461Z,25.60
2019-04-05T04:14:21.253Z,22.53
2019-04-05T04:16:51.148Z,25.47
2019-04-05T04:19:21.236Z,20.63
2019-04-05T04:22:11.658Z,23.47
2019-04-05T04:24:41.365Z,29.30
2019-04-05T04:27:11.361Z,24.00
2019-04-05T04:29:41.896Z,25.50
2019-04-05T04:32:11.805Z,29.50
2019-04-05T04:34:41.311Z,26.80
2019-04-05T04:37:11.171Z,27.90
2019-04-05T04:39:41.600Z,26.33
2019-04-05T04:42:12.163Z,38.07
2019-04-05T04:44:42.580Z,25.87
2019-04-05T04:47:25.494Z,40.03
2019-04-05T04:49:45.283Z,25.50
2019-04-05T04:52:16.281Z,31.10
2019-04-05T04:54:45.778Z,28.53
2019-04-05T04:57:15.279Z,25.00
2019-04-05T04:59:45.070Z,27.93
2019-04-05T05:02:14.715Z,26.90
2019-04-05T05:04:45.109Z,24.40
2019-04-05T05:07:15.571Z,25.57
2019-04-05T05:09:45.112Z,25.43
2019-04-05T05:12:14.732Z,26.40
2019-04-05T05:14:44.622Z,31.67
2019-04-05T05:17:14.219Z,23.70
2019-04-05T05:19:44.137Z,27.63
2019-04-05T05:22:13.783Z,22.43
2019-04-05T05:24:43.405Z,24.27
2019-04-05T05:27:13.325Z,25.23
2019-04-05T05:29:43.117Z,21.10
2019-04-05T05:32:12.866Z,27.23
2019-04-05T05:34:42.758Z,28.70
2019-04-05T05:37:12.712Z,25.53
2019-04-05T05:39:42.181Z,31.50
2019-04-05T05:42:11.881Z,17.27
2019-04-05T05:44:41.338Z,25.80
2019-04-05T05:47:10.797Z,27.67
2019-04-05T05:49:40.287Z,22.73
2019-04-05T05:52:10.111Z,29.87
2019-04-05T05:54:39.572Z,25.00
2019-04-05T05:57:09.022Z,24.70
2019-04-05T05:59:38.474Z,26.90
2019-04-05T06:02:07.944Z,28.30
2019-04-05T06:04:37.402Z,27.10
2019-04-05T06:07:06.865Z,23.80
2019-04-05T06:09:36.294Z,20.87
2019-04-05T06:12:05.724Z,25.83
2019-04-05T06:14:35.168Z,25.73
2019-04-05T06:17:04.606Z,21.47
2019-04-05T06:19:34.109Z,29.23
2019-04-05T06:22:03.583Z,22.80
2019-04-05T06:24:33.029Z,29.87
2019-04-05T06:27:02.559Z,26.23
2019-04-05T06:29:32.022Z,20.83
2019-04-05T06:32:01.507Z,30.77
2019-04-05T06:34:31.027Z,31.23
2019-04-05T06:37:00.528Z,26.00
2019-04-05T06:39:30.016Z,22.40
2019-04-05T06:41:59.536Z,28.33
2019-04-05T06:44:29.032Z,25.43
2019-04-05T06:46:58.461Z,20.37
2019-04-05T06:49:27.917Z,20.10
2019-04-05T06:51:57.367Z,29.93
2019-04-05T06:54:26.843Z,27.60
2019-04-05T06:56:56.283Z,20.90
2019-04-05T06:59:25.736Z,23.03
2019-04-05T07:01:55.217Z,22.50
2019-04-05T07:04:24.665Z,19.77
2019-04-05T07:06:54.225Z,21.63
2019-04-05T07:09:23.671Z,26.87
2019-04-05T07:11:53.100Z,20.90
2019-04-05T07:14:22.557Z,25.63
2019-04-05T07:16:51.991Z,23.57
2019-04-05T07:19:21.466Z,30.20
2019-04-05T07:21:50.931Z,34.43
2019-04-05T07:24:20.406Z,29.13
2019-04-05T07:26:49.858Z,31.90
2019-04-05T07:29:19.341Z,29.63
2019-04-05T07:31:48.829Z,30.40
2019-04-05T07:34:18.370Z,28.57
2019-04-05T07:36:47.839Z,26.70
2019-04-05T07:39:17.367Z,32.50
2019-04-05T07:41:46.862Z,26.30
2019-04-05T07:44:16.315Z,29.70
2019-04-05T07:46:46.701Z,26.70
2019-04-05T07:49:16.200Z,27.13
2019-04-05T07:51:45.662Z,32.10
2019-04-05T07:54:15.103Z,26.70
2019-04-05T07:56:46.271Z,29.03
2019-04-05T07:59:15.901Z,25.00
2019-04-05T08:01:45.437Z,20.90
2019-04-05T08:04:14.997Z,25.40
2019-04-05T08:06:46.503Z,28.37
2019-04-05T08:09:18.759Z,22.40
2019-04-05T08:11:49.122Z,30.20
2019-04-05T08:14:20.510Z,30.00
2019-04-05T09:39:35.104Z,24.47
2019-04-05T09:42:04.714Z,19.90
2019-04-05T09:44:34.199Z,23.47
2019-04-05T09:47:03.630Z,17.20
2019-04-05T09:49:36.887Z,25.20
2019-04-05T09:52:04.292Z,24.57
2019-04-05T09:54:33.762Z,23.13
2019-04-05T09:57:03.245Z,22.20
2019-04-05T09:59:32.718Z,18.33
2019-04-05T10:02:02.177Z,20.17
2019-04-05T10:04:31.635Z,19.50
2019-04-05T10:07:01.283Z,21.00
2019-04-05T10:09:30.811Z,20.53
2019-04-05T10:12:00.286Z,16.43
2019-04-05T10:14:29.718Z,15.40
2019-04-05T10:16:59.175Z,17.33
2019-04-05T10:19:28.677Z,15.87
2019-04-05T10:21:58.063Z,21.20
2019-04-05T10:24:27.525Z,15.17
2019-04-05T10:26:57.047Z,12.33
2019-04-05T10:29:26.496Z,14.77
2019-04-05T10:31:55.920Z,15.70
2019-04-05T10:34:25.446Z,19.40
2019-04-05T10:36:54.876Z,15.40
2019-04-05T10:39:43.667Z,20.20
2019-04-05T10:42:30.927Z,19.30
2019-04-05T10:45:00.722Z,16.90
2019-04-05T10:47:30.644Z,17.80
2019-04-05T10:50:03.443Z,15.50
2019-04-05T10:52:31.265Z,15.47
2019-04-05T10:55:00.706Z,19.50
2019-04-05T10:57:30.206Z,14.30
2019-04-05T10:59:59.678Z,12.57
2019-04-05T11:02:29.133Z,14.70
2019-04-05T11:04:58.586Z,15.17
2019-04-05T11:07:28.029Z,13.60
2019-04-05T11:09:57.479Z,12.10
2019-04-05T11:12:26.928Z,15.20
2019-04-05T11:14:56.401Z,14.87
2019-04-05T11:17:25.848Z,11.20
2019-04-05T11:19:55.295Z,15.67
2019-04-05T11:22:24.773Z,20.50
2019-04-05T11:24:54.222Z,14.70
2019-04-05T11:27:23.736Z,14.13
2019-04-05T11:29:53.194Z,10.77
2019-04-05T11:32:22.824Z,12.27
2019-04-05T11:34:52.783Z,13.97
2019-04-05T11:37:22.796Z,13.93
2019-04-05T11:39:52.645Z,10.50
2019-04-05T11:42:24.413Z,16.10
2019-04-05T11:44:56.549Z,11.40
2019-04-05T11:47:26.647Z,12.70
2019-04-05T11:49:57.870Z,14.07
2019-04-05T11:52:27.420Z,11.97
2019-04-05T11:54:56.860Z,13.70
2019-04-05T11:57:26.319Z,13.97
2019-04-05T11:59:55.781Z,19.63
2019-04-05T12:02:32.745Z,13.33
2019-04-05T12:05:02.374Z,14.57
2019-04-05T12:07:31.833Z,14.73
2019-04-05T12:10:01.263Z,11.63
2019-04-05T12:12:30.737Z,13.87
2019-04-05T12:15:00.197Z,14.73
2019-04-05T12:17:29.645Z,13.67
2019-04-05T12:20:02.304Z,14.63
2019-04-05T12:22:30.242Z,11.90
2019-04-05T12:25:00.569Z,13.03
2019-04-05T12:27:31.356Z,11.50
2019-04-05T12:30:00.805Z,11.20
2019-04-05T12:32:34.521Z,11.40
2019-04-05T12:35:01.709Z,11.90
2019-04-05T12:37:31.131Z,14.03
2019-04-05T12:40:00.587Z,15.20
2019-04-05T12:42:30.055Z,11.93
2019-04-05T12:44:59.513Z,13.17
2019-04-05T12:47:28.934Z,11.57
2019-04-05T12:49:58.419Z,12.97
2019-04-05T12:52:28.346Z,11.50
2019-04-05T12:54:57.794Z,15.03
2019-04-05T12:57:27.774Z,14.10
2019-04-05T12:59:57.872Z,11.67
2019-04-05T13:02:33.322Z,15.37
2019-04-05T13:04:58.677Z,13.30
2019-04-05T13:07:28.569Z,11.87
2019-04-05T13:09:58.025Z,12.20
2019-04-05T13:12:27.476Z,12.60
2019-04-05T13:15:11.225Z,12.60
2019-04-05T13:17:31.050Z,12.37
2019-04-05T13:20:00.886Z,13.73
2019-04-05T13:22:32.554Z,11.80
2019-04-05T13:25:01.626Z,12.80
2019-04-05T13:27:31.098Z,13.10
2019-04-05T13:30:00.523Z,11.93
2019-04-05T13:32:29.977Z,11.00
2019-04-05T13:34:59.444Z,13.83
2019-04-05T13:37:30.756Z,11.90
2019-04-05T13:40:00.540Z,11.97
2019-04-05T13:42:31.901Z,13.50
2019-04-05T13:45:01.279Z,13.30
2019-04-05T13:47:32.975Z,11.77
2019-04-05T13:50:01.933Z,11.07
2019-04-05T13:52:31.356Z,10.97
2019-04-05T13:55:00.803Z,12.00
2019-04-05T13:57:30.347Z,13.60
2019-04-05T13:59:59.792Z,11.90
2019-04-05T14:02:29.241Z,11.37
2019-04-05T14:04:58.716Z,12.83
2019-04-05T14:07:28.163Z,10.77
2019-04-05T14:09:57.691Z,14.63
2019-04-05T14:12:27.164Z,11.27
2019-04-05T14:14:56.608Z,15.07
2019-04-05T14:17:26.113Z,12.87
2019-04-05T14:19:55.591Z,13.37
2019-04-05T14:22:25.044Z,13.97
2019-04-05T14:24:56.651Z,11.27
2019-04-05T14:27:25.684Z,12.03
2019-04-05T14:29:55.106Z,10.50
2019-04-05T14:32:24.556Z,10.70
2019-04-05T14:34:54.872Z,12.47
2019-04-05T14:37:25.073Z,12.53
2019-04-05T14:39:54.614Z,12.10
2019-04-05T14:42:24.073Z,10.80
2019-04-05T14:44:53.501Z,10.03
2019-04-05T14:47:23.108Z,18.33
2019-04-05T14:49:52.584Z,11.27
2019-04-05T14:52:22.035Z,18.67
2019-04-05T14:54:51.488Z,11.17
2019-04-05T14:57:20.976Z,14.47
2019-04-05T14:59:50.399Z,10.13
2019-04-05T15:02:19.825Z,11.77
2019-04-05T15:04:49.568Z,9.07
2019-04-05T15:07:20.838Z,9.97
2019-04-05T15:09:50.171Z,11.83
2019-04-05T15:12:19.634Z,11.00
2019-04-05T15:14:49.078Z,17.90
2019-04-05T15:17:18.529Z,11.00
2019-04-05T15:19:48.004Z,18.57
2019-04-05T15:22:17.449Z,15.83
2019-04-05T15:24:47.550Z,14.30
2019-04-05T15:27:17.149Z,12.70
2019-04-05T15:29:46.591Z,18.90
2019-04-05T15:32:16.043Z,14.97
2019-04-05T15:34:45.517Z,17.00
2019-04-05T15:37:16.110Z,15.70
2019-04-05T15:39:45.974Z,16.30
2019-04-05T15:42:15.445Z,14.23
2019-04-05T15:44:44.899Z,16.23
2019-04-05T15:47:14.348Z,12.60
2019-04-05T15:49:43.806Z,13.77
2019-04-05T15:52:18.978Z,17.87
2019-04-05T15:54:44.414Z,19.50
2019-04-05T15:57:13.865Z,15.57
2019-04-05T15:59:45.086Z,13.73
2019-04-05T16:02:14.647Z,15.77
2019-04-05T16:04:44.147Z,17.20
2019-04-05T16:07:13.596Z,14.90
2019-04-05T16:09:43.022Z,15.17
2019-04-05T16:12:12.512Z,13.73
2019-04-05T16:14:41.964Z,13.30
2019-04-05T16:17:12.581Z,15.03
2019-04-05T16:19:42.305Z,17.50
2019-04-05T16:22:11.858Z,18.80
2019-04-05T16:24:41.289Z,16.03
2019-04-05T16:27:10.799Z,15.10
2019-04-05T16:29:40.304Z,13.97
2019-04-05T16:32:09.753Z,13.93
2019-04-05T16:34:39.241Z,13.40
2019-04-05T16:37:08.669Z,16.10
2019-04-05T16:39:38.194Z,13.60
2019-04-05T16:42:10.079Z,14.80
2019-04-05T16:44:38.837Z,16.33
2019-04-05T16:47:08.246Z,14.20
2019-04-05T16:49:37.750Z,15.77
2019-04-05T16:52:07.173Z,15.87
2019-04-05T16:54:36.621Z,17.47
2019-04-05T16:57:06.167Z,13.73
2019-04-05T16:59:35.653Z,15.70
2019-04-05T17:02:05.249Z,13.53
2019-04-05T17:04:34.858Z,15.70
2019-04-05T17:07:04.281Z,15.57
2019-04-05T17:09:33.754Z,14.23
2019-04-05T17:12:03.206Z,15.83
2019-04-05T17:14:32.654Z,14.70
2019-04-05T17:17:02.109Z,13.67
2019-04-05T17:19:31.599Z,13.97
2019-04-05T17:22:01.217Z,14.67
2019-04-05T17:24:30.671Z,13.47
2019-04-05T17:27:00.145Z,14.30
2019-04-05T17:29:29.649Z,14.30
2019-04-05T17:31:59.110Z,14.37
2019-04-05T17:34:28.631Z,22.07
2019-04-05T17:36:58.085Z,16.03
2019-04-05T17:39:27.500Z,13.63
2019-04-05T17:41:57.401Z,13.70
2019-04-05T17:44:26.821Z,13.70
2019-04-05T17:46:56.276Z,15.40
2019-04-05T17:49:26.045Z,13.77
2019-04-05T17:51:55.493Z,14.10
2019-04-05T17:54:24.940Z,15.80
2019-04-05T17:56:54.525Z,14.80
2019-04-05T17:59:24.151Z,13.87
2019-04-05T18:01:53.574Z,17.37
2019-04-05T18:04:23.216Z,13.27
2019-04-05T18:06:52.642Z,12.23
2019-04-05T18:09:22.067Z,14.10
2019-04-05T18:11:51.611Z,11.97
2019-04-05T18:14:21.348Z,14.57
2019-04-05T18:16:50.786Z,11.67
2019-04-05T18:19:20.260Z,12.40
2019-04-05T18:21:49.712Z,13.60
2019-04-05T18:24:19.203Z,15.33
2019-04-05T18:26:48.672Z,16.20
2019-04-05T18:29:18.150Z,14.80
2019-04-05T18:31:47.572Z,14.83
2019-04-05T18:34:17.034Z,13.40
2019-04-05T18:36:46.689Z,14.47
2019-04-05T18:39:16.117Z,11.60
2019-04-05T18:41:45.608Z,21.03
2019-04-05T18:44:15.060Z,16.30
2019-04-05T18:46:44.522Z,15.83
2019-04-05T18:49:14.290Z,18.00
2019-04-05T18:51:43.744Z,14.80
2019-04-05T18:54:13.239Z,21.30
2019-04-05T18:56:42.697Z,20.40
2019-04-05T18:59:12.157Z,22.27
2019-04-05T19:01:41.618Z,23.13
2019-04-05T19:04:11.080Z,19.03
2019-04-05T19:06:40.578Z,20.17
2019-04-05T19:09:12.096Z,19.00
2019-04-05T19:11:41.662Z,18.70
2019-04-05T19:14:11.088Z,18.70
2019-04-05T19:16:40.667Z,17.73
2019-04-05T19:19:10.166Z,15.57
2019-04-05T19:21:39.594Z,20.00
2019-04-05T19:24:09.071Z,16.50
2019-04-05T19:26:38.546Z,17.27
2019-04-05T19:29:07.971Z,19.47
2019-04-05T19:49:16.198Z,18.30
2019-04-05T19:51:45.634Z,22.17
2019-04-05T19:54:15.152Z,18.50
2019-04-05T19:56:44.636Z,17.67
2019-04-05T19:59:14.064Z,16.10
2019-04-05T20:01:43.665Z,20.23
2019-04-05T20:04:13.111Z,15.80
2019-04-05T20:06:42.549Z,18.57
2019-04-05T20:09:12.199Z,18.80
2019-04-05T20:11:44.442Z,19.13
2019-04-05T20:14:13.894Z,18.60
2019-04-05T20:16:44.021Z,21.07
2019-04-05T20:19:13.453Z,22.47
2019-04-05T20:21:42.905Z,19.80
2019-04-05T20:24:14.307Z,20.03
2019-04-05T20:26:43.565Z,19.60
2019-04-05T20:29:13.055Z,21.30
2019-04-05T20:31:42.485Z,20.03
2019-04-05T20:34:11.955Z,18.73
2019-04-05T20:36:41.400Z,20.33
2019-04-05T20:39:10.872Z,18.17
2019-04-05T20:41:40.361Z,20.83
2019-04-05T20:44:09.848Z,23.90
2019-04-05T20:46:39.308Z,22.10
2019-04-05T20:49:08.851Z,20.53
2019-04-05T20:51:38.325Z,20.27
2019-04-05T20:54:07.804Z,23.83
2019-04-05T20:56:37.270Z,26.13
2019-04-05T20:59:06.751Z,25.50
2019-04-05T21:01:36.181Z,28.00
2019-04-05T21:04:05.613Z,22.07
2019-04-05T21:06:35.092Z,22.93
2019-04-05T21:09:07.295Z,23.87
2019-04-05T21:11:36.736Z,29.20
2019-04-05T21:14:06.287Z,23.73
2019-04-05T21:16:36.021Z,26.50
2019-04-05T21:19:05.450Z,20.10
2019-04-05T21:21:34.914Z,29.57
2019-04-05T21:24:04.353Z,23.23
2019-04-05T21:26:33.799Z,25.77
2019-04-05T21:29:03.280Z,26.17
2019-04-05T21:31:32.720Z,25.53
2019-04-05T21:34:02.228Z,26.83
2019-04-05T21:36:31.677Z,28.13
2019-04-05T21:39:01.111Z,28.73
2019-04-05T21:41:30.564Z,33.20
2019-04-05T21:44:00.039Z,25.73
2019-04-05T21:46:29.498Z,25.43
2019-04-05T21:48:58.947Z,23.93
2019-04-05T21:51:28.399Z,29.53
2019-04-05T21:53:57.840Z,25.63
2019-04-05T21:56:27.295Z,25.37
2019-04-05T21:58:56.776Z,29.23
2019-04-05T22:01:27.189Z,27.63
2019-04-05T22:03:56.828Z,26.70
2019-04-05T22:06:26.280Z,27.87
2019-04-05T22:08:55.705Z,23.70
2019-04-05T22:11:27.545Z,24.80
2019-04-05T22:13:56.351Z,22.93
2019-04-05T22:16:25.804Z,28.90
2019-04-05T22:18:56.896Z,26.10
2019-04-05T22:21:26.342Z,28.33
2019-04-05T22:23:55.770Z,25.10
2019-04-05T22:26:25.220Z,26.17
2019-04-05T22:28:54.695Z,25.70
2019-04-05T22:31:24.154Z,26.67
2019-04-05T22:33:53.609Z,33.83
2019-04-05T22:36:23.158Z,24.50
2019-04-05T22:38:52.597Z,33.83
2019-04-05T22:41:22.059Z,26.20
2019-04-05T22:43:51.520Z,28.73
2019-04-05T22:46:20.940Z,27.30
2019-04-05T22:48:50.392Z,27.00
2019-04-05T22:51:19.862Z,26.17
2019-04-05T22:53:49.325Z,26.80
2019-04-05T22:56:18.779Z,28.93
2019-04-05T22:58:48.239Z,27.83
2019-04-05T23:01:17.693Z,32.73
2019-04-05T23:03:47.145Z,26.50
2019-04-05T23:06:16.633Z,28.23
2019-04-05T23:08:46.069Z,32.17
2019-04-05T23:11:15.531Z,28.40
2019-04-05T23:13:44.989Z,24.43
2019-04-05T23:16:14.415Z,32.40
2019-04-05T23:18:43.865Z,35.67
2019-04-05T23:21:13.335Z,28.43
2019-04-05T23:23:42.787Z,33.40
2019-04-05T23:26:12.261Z,29.73
2019-04-05T23:28:41.734Z,28.30
2019-04-05T23:31:11.170Z,30.00
2019-04-05T23:33:40.596Z,30.30
2019-04-05T23:36:10.056Z,26.43
2019-04-05T23:38:58.846Z,26.03
2019-04-05T23:41:28.308Z,26.10
2019-04-05T23:43:57.759Z,23.30
2019-04-05T23:46:27.237Z,24.77
2019-04-05T23:48:56.680Z,28.73
2019-04-05T23:51:26.129Z,26.43
2019-04-05T23:53:55.579Z,25.43
2019-04-05T23:56:25.058Z,25.90
2019-04-05T23:58:54.481Z,32.43
